Broxton, Georgia
Current Conditions -  °F | °C
As of 3:55 PM on Tuesday 25 Nov 2014 (Local Time) from KDQH Reporting Station
Moderate Rain Moderate Rain  
Wind Chill: 54°   Ceiling: 4800
Heat Index: 54°   Visibility: 7mi
Dew Point: 50°   Wind: 10mph
Humidity: 88%   Direction: 50°NE
Pressure: 29.98"   Gusts: NA
Location:  31.63°N, 82.89°W
Report Text: KDQH 252055Z AUTO 05009KT 7SM RA SCT006 BKN048 OVC060 12/10 A2998 RMK AO2 LTG DSNT SE
Loading
Personal Weather Stations






























Interactive Weather Map New forecast layout! Learn more

10-Day Weather Forecast

Advertisements
Track Severe Weather on mobile